sensor_id;sensor_type;location;lat;lon;timestamp;P1;durP1;ratioP1;P2;durP2;ratioP2
33150;SDS011;19508;42.578;23.416;2023-01-01T00:00:08;41.92;;;17.63;;
33150;SDS011;19508;42.578;23.416;2023-01-01T00:02:34;44.15;;;17.88;;
33150;SDS011;19508;42.578;23.416;2023-01-01T00:05:00;42.35;;;19.85;;
33150;SDS011;19508;42.578;23.416;2023-01-01T00:07:25;42.70;;;20.70;;
33150;SDS011;19508;42.578;23.416;2023-01-01T00:09:51;50.22;;;20.73;;
33150;SDS011;19508;42.578;23.416;2023-01-01T00:12:34;53.45;;;23.92;;
33150;SDS011;19508;42.578;23.416;2023-01-01T00:15:00;75.25;;;33.55;;
33150;SDS011;19508;42.578;23.416;2023-01-01T00:17:25;55.95;;;26.17;;
33150;SDS011;19508;42.578;23.416;2023-01-01T00:19:54;40.08;;;18.30;;
33150;SDS011;19508;42.578;23.416;2023-01-01T00:22:19;38.53;;;18.63;;
33150;SDS011;19508;42.578;23.416;2023-01-01T00:24:45;58.63;;;29.38;;
33150;SDS011;19508;42.578;23.416;2023-01-01T00:27:10;61.15;;;27.80;;
33150;SDS011;19508;42.578;23.416;2023-01-01T00:29:36;45.35;;;22.90;;
33150;SDS011;19508;42.578;23.416;2023-01-01T00:32:01;48.42;;;24.13;;
33150;SDS011;19508;42.578;23.416;2023-01-01T00:34:26;49.22;;;23.30;;
33150;SDS011;19508;42.578;23.416;2023-01-01T00:36:52;61.13;;;26.17;;
33150;SDS011;19508;42.578;23.416;2023-01-01T00:39:17;68.18;;;28.10;;
33150;SDS011;19508;42.578;23.416;2023-01-01T00:41:43;59.33;;;23.05;;
33150;SDS011;19508;42.578;23.416;2023-01-01T00:44:08;65.32;;;27.50;;
33150;SDS011;19508;42.578;23.416;2023-01-01T00:46:33;84.32;;;35.00;;
33150;SDS011;19508;42.578;23.416;2023-01-01T00:48:59;67.88;;;31.95;;
33150;SDS011;19508;42.578;23.416;2023-01-01T00:51:24;50.42;;;24.80;;
33150;SDS011;19508;42.578;23.416;2023-01-01T00:53:50;35.92;;;18.25;;
33150;SDS011;19508;42.578;23.416;2023-01-01T00:56:15;40.58;;;18.75;;
33150;SDS011;19508;42.578;23.416;2023-01-01T00:58:41;38.30;;;17.65;;
33150;SDS011;19508;42.578;23.416;2023-01-01T01:01:07;36.88;;;17.70;;
33150;SDS011;19508;42.578;23.416;2023-01-01T01:03:32;32.22;;;14.43;;
33150;SDS011;19508;42.578;23.416;2023-01-01T01:08:26;45.67;;;18.98;;
33150;SDS011;19508;42.578;23.416;2023-01-01T01:10:52;55.10;;;22.85;;
33150;SDS011;19508;42.578;23.416;2023-01-01T01:13:18;64.30;;;25.77;;
33150;SDS011;19508;42.578;23.416;2023-01-01T01:15:44;43.97;;;19.40;;
33150;SDS011;19508;42.578;23.416;2023-01-01T01:18:10;52.35;;;19.77;;
33150;SDS011;19508;42.578;23.416;2023-01-01T01:20:35;45.67;;;18.50;;
33150;SDS011;19508;42.578;23.416;2023-01-01T01:23:00;45.72;;;20.38;;
33150;SDS011;19508;42.578;23.416;2023-01-01T01:25:26;39.97;;;18.92;;
33150;SDS011;19508;42.578;23.416;2023-01-01T01:27:51;36.42;;;16.52;;
33150;SDS011;19508;42.578;23.416;2023-01-01T01:30:17;46.67;;;19.65;;
33150;SDS011;19508;42.578;23.416;2023-01-01T01:32:42;47.97;;;19.23;;
33150;SDS011;19508;42.578;23.416;2023-01-01T01:35:08;43.42;;;19.63;;
33150;SDS011;19508;42.578;23.416;2023-01-01T01:37:33;34.33;;;15.55;;
33150;SDS011;19508;42.578;23.416;2023-01-01T01:39:58;37.47;;;15.98;;
33150;SDS011;19508;42.578;23.416;2023-01-01T01:42:24;49.88;;;19.52;;
33150;SDS011;19508;42.578;23.416;2023-01-01T01:50:18;54.60;;;20.63;;
33150;SDS011;19508;42.578;23.416;2023-01-01T01:55:25;58.13;;;21.75;;
33150;SDS011;19508;42.578;23.416;2023-01-01T01:57:53;49.85;;;20.95;;
33150;SDS011;19508;42.578;23.416;2023-01-01T02:00:19;38.10;;;16.77;;
33150;SDS011;19508;42.578;23.416;2023-01-01T02:05:26;38.95;;;15.32;;
33150;SDS011;19508;42.578;23.416;2023-01-01T02:07:53;53.20;;;19.45;;
33150;SDS011;19508;42.578;23.416;2023-01-01T02:10:19;37.30;;;17.23;;
33150;SDS011;19508;42.578;23.416;2023-01-01T02:12:45;31.08;;;12.68;;
33150;SDS011;19508;42.578;23.416;2023-01-01T02:15:10;23.02;;;10.95;;
33150;SDS011;19508;42.578;23.416;2023-01-01T02:17:43;31.48;;;13.77;;
33150;SDS011;19508;42.578;23.416;2023-01-01T02:23:27;41.17;;;16.63;;
33150;SDS011;19508;42.578;23.416;2023-01-01T02:28:44;42.13;;;16.65;;
33150;SDS011;19508;42.578;23.416;2023-01-01T02:31:36;23.02;;;12.07;;
33150;SDS011;19508;42.578;23.416;2023-01-01T02:34:08;36.10;;;13.27;;
33150;SDS011;19508;42.578;23.416;2023-01-01T02:36:38;21.75;;;11.85;;
33150;SDS011;19508;42.578;23.416;2023-01-01T02:39:09;71.53;;;23.48;;
33150;SDS011;19508;42.578;23.416;2023-01-01T02:41:39;42.38;;;17.08;;
33150;SDS011;19508;42.578;23.416;2023-01-01T02:44:09;33.08;;;16.10;;
33150;SDS011;19508;42.578;23.416;2023-01-01T02:46:35;22.40;;;12.35;;
33150;SDS011;19508;42.578;23.416;2023-01-01T02:49:01;34.83;;;14.15;;
33150;SDS011;19508;42.578;23.416;2023-01-01T02:56:50;21.77;;;10.20;;
33150;SDS011;19508;42.578;23.416;2023-01-01T03:05:19;26.80;;;10.90;;
33150;SDS011;19508;42.578;23.416;2023-01-01T03:13:29;39.20;;;14.88;;
33150;SDS011;19508;42.578;23.416;2023-01-01T03:16:15;40.92;;;16.90;;
33150;SDS011;19508;42.578;23.416;2023-01-01T03:19:06;53.50;;;19.98;;
33150;SDS011;19508;42.578;23.416;2023-01-01T03:21:40;38.45;;;17.95;;
33150;SDS011;19508;42.578;23.416;2023-01-01T03:24:10;39.65;;;16.08;;
33150;SDS011;19508;42.578;23.416;2023-01-01T03:26:44;35.47;;;14.68;;
33150;SDS011;19508;42.578;23.416;2023-01-01T03:29:14;42.60;;;17.48;;
33150;SDS011;19508;42.578;23.416;2023-01-01T03:31:41;53.63;;;20.13;;
33150;SDS011;19508;42.578;23.416;2023-01-01T03:34:12;34.65;;;16.55;;
33150;SDS011;19508;42.578;23.416;2023-01-01T03:36:43;40.38;;;17.08;;
33150;SDS011;19508;42.578;23.416;2023-01-01T03:39:17;36.88;;;16.25;;
33150;SDS011;19508;42.578;23.416;2023-01-01T03:41:57;45.92;;;18.00;;
33150;SDS011;19508;42.578;23.416;2023-01-01T03:44:34;38.15;;;16.90;;
33150;SDS011;19508;42.578;23.416;2023-01-01T03:47:08;39.83;;;17.90;;
33150;SDS011;19508;42.578;23.416;2023-01-01T03:49:33;54.72;;;23.27;;
33150;SDS011;19508;42.578;23.416;2023-01-01T03:54:55;38.55;;;16.88;;
33150;SDS011;19508;42.578;23.416;2023-01-01T04:00:07;38.75;;;16.33;;
33150;SDS011;19508;42.578;23.416;2023-01-01T04:02:36;37.03;;;14.30;;
33150;SDS011;19508;42.578;23.416;2023-01-01T04:05:22;27.65;;;13.25;;
33150;SDS011;19508;42.578;23.416;2023-01-01T04:07:49;26.40;;;12.77;;
33150;SDS011;19508;42.578;23.416;2023-01-01T04:10:17;36.28;;;15.70;;
33150;SDS011;19508;42.578;23.416;2023-01-01T04:12:47;38.65;;;16.65;;
33150;SDS011;19508;42.578;23.416;2023-01-01T04:15:17;25.92;;;12.75;;
33150;SDS011;19508;42.578;23.416;2023-01-01T04:17:44;28.38;;;11.70;;
33150;SDS011;19508;42.578;23.416;2023-01-01T04:20:09;29.98;;;15.35;;
33150;SDS011;19508;42.578;23.416;2023-01-01T04:22:35;32.83;;;15.55;;
33150;SDS011;19508;42.578;23.416;2023-01-01T04:25:01;37.67;;;15.80;;
33150;SDS011;19508;42.578;23.416;2023-01-01T04:27:26;31.45;;;15.25;;
33150;SDS011;19508;42.578;23.416;2023-01-01T04:29:52;36.25;;;15.98;;
33150;SDS011;19508;42.578;23.416;2023-01-01T04:32:17;48.47;;;20.42;;
33150;SDS011;19508;42.578;23.416;2023-01-01T04:34:42;38.67;;;16.85;;
33150;SDS011;19508;42.578;23.416;2023-01-01T04:37:08;30.52;;;13.50;;
33150;SDS011;19508;42.578;23.416;2023-01-01T04:39:33;41.33;;;16.38;;
33150;SDS011;19508;42.578;23.416;2023-01-01T04:41:59;152.77;;;59.88;;
33150;SDS011;19508;42.578;23.416;2023-01-01T04:44:24;56.70;;;23.73;;
33150;SDS011;19508;42.578;23.416;2023-01-01T04:46:49;33.95;;;14.05;;
33150;SDS011;19508;42.578;23.416;2023-01-01T04:49:15;23.67;;;11.85;;
33150;SDS011;19508;42.578;23.416;2023-01-01T04:51:40;35.30;;;12.52;;
33150;SDS011;19508;42.578;23.416;2023-01-01T04:54:05;30.10;;;13.20;;
33150;SDS011;19508;42.578;23.416;2023-01-01T04:56:31;47.60;;;20.55;;
33150;SDS011;19508;42.578;23.416;2023-01-01T04:58:56;28.05;;;12.30;;
33150;SDS011;19508;42.578;23.416;2023-01-01T05:01:23;57.55;;;23.98;;
33150;SDS011;19508;42.578;23.416;2023-01-01T05:03:54;39.10;;;18.35;;
33150;SDS011;19508;42.578;23.416;2023-01-01T05:06:21;40.63;;;16.95;;
33150;SDS011;19508;42.578;23.416;2023-01-01T05:08:48;29.08;;;11.85;;
33150;SDS011;19508;42.578;23.416;2023-01-01T05:11:19;49.47;;;16.35;;
33150;SDS011;19508;42.578;23.416;2023-01-01T05:13:52;32.38;;;12.70;;
33150;SDS011;19508;42.578;23.416;2023-01-01T05:16:20;24.98;;;12.10;;
33150;SDS011;19508;42.578;23.416;2023-01-01T05:18:51;28.42;;;12.00;;
33150;SDS011;19508;42.578;23.416;2023-01-01T05:21:18;36.20;;;14.40;;
33150;SDS011;19508;42.578;23.416;2023-01-01T05:23:45;38.28;;;16.25;;
33150;SDS011;19508;42.578;23.416;2023-01-01T05:26:12;37.95;;;15.07;;
33150;SDS011;19508;42.578;23.416;2023-01-01T05:28:39;33.92;;;13.55;;
33150;SDS011;19508;42.578;23.416;2023-01-01T05:31:09;49.10;;;18.40;;
33150;SDS011;19508;42.578;23.416;2023-01-01T05:33:36;33.27;;;14.33;;
33150;SDS011;19508;42.578;23.416;2023-01-01T05:36:02;32.83;;;14.43;;
33150;SDS011;19508;42.578;23.416;2023-01-01T05:38:30;41.65;;;17.65;;
33150;SDS011;19508;42.578;23.416;2023-01-01T05:40:55;23.30;;;10.18;;
33150;SDS011;19508;42.578;23.416;2023-01-01T05:43:21;61.50;;;22.33;;
33150;SDS011;19508;42.578;23.416;2023-01-01T05:45:47;26.75;;;11.55;;
33150;SDS011;19508;42.578;23.416;2023-01-01T05:48:12;27.55;;;10.52;;
33150;SDS011;19508;42.578;23.416;2023-01-01T05:50:38;90.32;;;38.70;;
33150;SDS011;19508;42.578;23.416;2023-01-01T05:53:03;49.78;;;23.73;;
33150;SDS011;19508;42.578;23.416;2023-01-01T05:55:29;42.00;;;15.52;;
33150;SDS011;19508;42.578;23.416;2023-01-01T05:57:55;87.65;;;28.63;;
33150;SDS011;19508;42.578;23.416;2023-01-01T06:00:21;106.65;;;37.05;;
33150;SDS011;19508;42.578;23.416;2023-01-01T06:02:46;50.25;;;20.30;;
33150;SDS011;19508;42.578;23.416;2023-01-01T06:05:14;48.28;;;17.85;;
33150;SDS011;19508;42.578;23.416;2023-01-01T06:10:24;35.15;;;14.30;;
33150;SDS011;19508;42.578;23.416;2023-01-01T06:12:50;26.33;;;9.80;;
33150;SDS011;19508;42.578;23.416;2023-01-01T06:15:15;34.08;;;15.50;;
33150;SDS011;19508;42.578;23.416;2023-01-01T06:17:41;37.13;;;15.07;;
33150;SDS011;19508;42.578;23.416;2023-01-01T06:20:06;31.75;;;11.68;;
33150;SDS011;19508;42.578;23.416;2023-01-01T06:22:34;24.98;;;11.73;;
33150;SDS011;19508;42.578;23.416;2023-01-01T06:25:00;37.45;;;15.27;;
33150;SDS011;19508;42.578;23.416;2023-01-01T06:27:26;22.40;;;10.95;;
33150;SDS011;19508;42.578;23.416;2023-01-01T06:29:51;28.52;;;10.95;;
33150;SDS011;19508;42.578;23.416;2023-01-01T06:32:16;26.00;;;10.88;;
33150;SDS011;19508;42.578;23.416;2023-01-01T06:34:42;19.15;;;10.05;;
33150;SDS011;19508;42.578;23.416;2023-01-01T06:37:07;31.20;;;11.82;;
33150;SDS011;19508;42.578;23.416;2023-01-01T06:39:33;24.08;;;12.27;;
33150;SDS011;19508;42.578;23.416;2023-01-01T06:41:58;28.63;;;13.18;;
33150;SDS011;19508;42.578;23.416;2023-01-01T06:44:23;31.67;;;13.73;;
33150;SDS011;19508;42.578;23.416;2023-01-01T06:46:49;38.78;;;14.98;;
33150;SDS011;19508;42.578;23.416;2023-01-01T06:49:14;34.85;;;16.83;;
33150;SDS011;19508;42.578;23.416;2023-01-01T06:51:40;40.88;;;20.13;;
33150;SDS011;19508;42.578;23.416;2023-01-01T06:54:08;45.75;;;22.23;;
33150;SDS011;19508;42.578;23.416;2023-01-01T06:56:35;41.58;;;19.42;;
33150;SDS011;19508;42.578;23.416;2023-01-01T06:59:00;34.35;;;17.38;;
33150;SDS011;19508;42.578;23.416;2023-01-01T07:01:27;44.03;;;20.90;;
33150;SDS011;19508;42.578;23.416;2023-01-01T07:03:55;35.05;;;14.60;;
33150;SDS011;19508;42.578;23.416;2023-01-01T07:06:25;29.15;;;14.57;;
33150;SDS011;19508;42.578;23.416;2023-01-01T07:08:52;36.05;;;14.95;;
33150;SDS011;19508;42.578;23.416;2023-01-01T07:11:17;28.92;;;14.45;;
33150;SDS011;19508;42.578;23.416;2023-01-01T07:13:43;29.45;;;13.85;;
33150;SDS011;19508;42.578;23.416;2023-01-01T07:16:09;24.60;;;12.98;;
33150;SDS011;19508;42.578;23.416;2023-01-01T07:18:35;30.95;;;13.32;;
33150;SDS011;19508;42.578;23.416;2023-01-01T07:21:01;26.40;;;12.85;;
33150;SDS011;19508;42.578;23.416;2023-01-01T07:23:28;24.77;;;11.77;;
33150;SDS011;19508;42.578;23.416;2023-01-01T07:25:55;27.15;;;12.27;;
33150;SDS011;19508;42.578;23.416;2023-01-01T07:28:22;21.92;;;12.27;;
33150;SDS011;19508;42.578;23.416;2023-01-01T07:30:48;30.38;;;11.93;;
33150;SDS011;19508;42.578;23.416;2023-01-01T07:33:15;36.85;;;12.68;;
33150;SDS011;19508;42.578;23.416;2023-01-01T07:35:43;27.92;;;14.30;;
33150;SDS011;19508;42.578;23.416;2023-01-01T07:38:09;39.38;;;18.10;;
33150;SDS011;19508;42.578;23.416;2023-01-01T07:40:35;59.55;;;31.95;;
33150;SDS011;19508;42.578;23.416;2023-01-01T07:43:01;31.48;;;17.35;;
33150;SDS011;19508;42.578;23.416;2023-01-01T07:45:26;26.20;;;13.45;;
33150;SDS011;19508;42.578;23.416;2023-01-01T07:47:52;25.70;;;13.65;;
33150;SDS011;19508;42.578;23.416;2023-01-01T07:50:19;23.38;;;11.07;;
33150;SDS011;19508;42.578;23.416;2023-01-01T07:52:46;26.90;;;12.13;;
33150;SDS011;19508;42.578;23.416;2023-01-01T07:55:18;22.45;;;10.40;;
33150;SDS011;19508;42.578;23.416;2023-01-01T07:57:44;20.60;;;11.05;;
33150;SDS011;19508;42.578;23.416;2023-01-01T08:00:12;16.45;;;8.82;;
33150;SDS011;19508;42.578;23.416;2023-01-01T08:02:39;16.42;;;9.25;;
33150;SDS011;19508;42.578;23.416;2023-01-01T08:05:06;16.75;;;9.45;;
33150;SDS011;19508;42.578;23.416;2023-01-01T08:07:32;14.18;;;8.52;;
33150;SDS011;19508;42.578;23.416;2023-01-01T08:09:57;16.65;;;8.32;;
33150;SDS011;19508;42.578;23.416;2023-01-01T08:12:23;18.30;;;8.80;;
33150;SDS011;19508;42.578;23.416;2023-01-01T08:14:49;15.35;;;8.75;;
33150;SDS011;19508;42.578;23.416;2023-01-01T08:17:14;17.58;;;9.32;;
33150;SDS011;19508;42.578;23.416;2023-01-01T08:19:40;20.60;;;8.40;;
33150;SDS011;19508;42.578;23.416;2023-01-01T08:22:05;17.50;;;9.52;;
33150;SDS011;19508;42.578;23.416;2023-01-01T08:27:09;14.48;;;8.30;;
33150;SDS011;19508;42.578;23.416;2023-01-01T08:29:37;15.68;;;9.02;;
33150;SDS011;19508;42.578;23.416;2023-01-01T08:32:02;14.23;;;7.80;;
33150;SDS011;19508;42.578;23.416;2023-01-01T08:34:28;12.43;;;7.45;;
33150;SDS011;19508;42.578;23.416;2023-01-01T08:36:53;15.10;;;7.53;;
33150;SDS011;19508;42.578;23.416;2023-01-01T08:39:19;16.75;;;8.70;;
33150;SDS011;19508;42.578;23.416;2023-01-01T08:41:44;12.88;;;7.20;;
33150;SDS011;19508;42.578;23.416;2023-01-01T08:44:09;22.60;;;11.95;;
33150;SDS011;19508;42.578;23.416;2023-01-01T08:46:35;13.25;;;7.13;;
33150;SDS011;19508;42.578;23.416;2023-01-01T08:49:00;11.50;;;6.35;;
33150;SDS011;19508;42.578;23.416;2023-01-01T08:51:25;10.20;;;6.38;;
33150;SDS011;19508;42.578;23.416;2023-01-01T08:53:51;14.77;;;7.45;;
33150;SDS011;19508;42.578;23.416;2023-01-01T08:56:16;14.63;;;7.82;;
33150;SDS011;19508;42.578;23.416;2023-01-01T08:58:42;13.73;;;7.43;;
33150;SDS011;19508;42.578;23.416;2023-01-01T09:01:08;13.85;;;7.70;;
33150;SDS011;19508;42.578;23.416;2023-01-01T09:03:35;14.38;;;8.27;;
33150;SDS011;19508;42.578;23.416;2023-01-01T09:06:00;15.90;;;7.25;;
33150;SDS011;19508;42.578;23.416;2023-01-01T09:08:26;10.80;;;6.45;;
33150;SDS011;19508;42.578;23.416;2023-01-01T09:10:51;11.88;;;6.35;;
33150;SDS011;19508;42.578;23.416;2023-01-01T09:13:21;15.32;;;8.32;;
33150;SDS011;19508;42.578;23.416;2023-01-01T09:15:46;16.20;;;8.50;;
33150;SDS011;19508;42.578;23.416;2023-01-01T09:18:12;15.77;;;7.82;;
33150;SDS011;19508;42.578;23.416;2023-01-01T09:20:39;13.90;;;8.13;;
33150;SDS011;19508;42.578;23.416;2023-01-01T09:23:05;12.65;;;7.68;;
33150;SDS011;19508;42.578;23.416;2023-01-01T09:25:32;29.15;;;11.73;;
33150;SDS011;19508;42.578;23.416;2023-01-01T09:27:59;18.88;;;9.85;;
33150;SDS011;19508;42.578;23.416;2023-01-01T09:30:26;20.52;;;10.10;;
33150;SDS011;19508;42.578;23.416;2023-01-01T09:32:52;28.00;;;14.30;;
33150;SDS011;19508;42.578;23.416;2023-01-01T09:35:17;21.27;;;11.05;;
33150;SDS011;19508;42.578;23.416;2023-01-01T09:37:43;25.52;;;13.85;;
33150;SDS011;19508;42.578;23.416;2023-01-01T09:40:30;31.05;;;14.27;;
33150;SDS011;19508;42.578;23.416;2023-01-01T09:43:00;29.17;;;13.63;;
33150;SDS011;19508;42.578;23.416;2023-01-01T09:45:52;19.45;;;9.18;;
33150;SDS011;19508;42.578;23.416;2023-01-01T09:48:21;18.17;;;9.77;;
33150;SDS011;19508;42.578;23.416;2023-01-01T09:50:49;24.08;;;13.02;;
33150;SDS011;19508;42.578;23.416;2023-01-01T09:53:16;29.00;;;13.85;;
33150;SDS011;19508;42.578;23.416;2023-01-01T09:56:02;23.25;;;12.35;;
33150;SDS011;19508;42.578;23.416;2023-01-01T09:58:33;21.40;;;11.68;;
33150;SDS011;19508;42.578;23.416;2023-01-01T10:01:02;18.77;;;9.88;;
33150;SDS011;19508;42.578;23.416;2023-01-01T10:06:20;17.70;;;10.27;;
33150;SDS011;19508;42.578;23.416;2023-01-01T10:14:36;45.25;;;23.00;;
33150;SDS011;19508;42.578;23.416;2023-01-01T10:17:14;55.90;;;27.92;;
33150;SDS011;19508;42.578;23.416;2023-01-01T10:19:48;52.78;;;25.75;;
33150;SDS011;19508;42.578;23.416;2023-01-01T10:22:18;43.30;;;22.35;;
33150;SDS011;19508;42.578;23.416;2023-01-01T10:24:49;42.45;;;22.23;;
33150;SDS011;19508;42.578;23.416;2023-01-01T10:27:42;42.67;;;21.63;;
33150;SDS011;19508;42.578;23.416;2023-01-01T10:30:16;42.47;;;21.13;;
33150;SDS011;19508;42.578;23.416;2023-01-01T10:32:45;54.45;;;27.25;;
33150;SDS011;19508;42.578;23.416;2023-01-01T10:35:13;62.20;;;31.95;;
33150;SDS011;19508;42.578;23.416;2023-01-01T10:37:41;60.05;;;32.95;;
33150;SDS011;19508;42.578;23.416;2023-01-01T10:40:14;61.35;;;31.60;;
33150;SDS011;19508;42.578;23.416;2023-01-01T10:42:45;70.63;;;34.53;;
33150;SDS011;19508;42.578;23.416;2023-01-01T10:45:14;68.75;;;35.70;;
33150;SDS011;19508;42.578;23.416;2023-01-01T10:48:07;71.53;;;33.65;;
33150;SDS011;19508;42.578;23.416;2023-01-01T10:53:48;56.15;;;28.80;;
33150;SDS011;19508;42.578;23.416;2023-01-01T10:56:15;56.83;;;27.33;;
33150;SDS011;19508;42.578;23.416;2023-01-01T10:58:46;53.20;;;27.00;;
33150;SDS011;19508;42.578;23.416;2023-01-01T11:01:22;158.57;;;59.40;;
33150;SDS011;19508;42.578;23.416;2023-01-01T11:06:31;51.92;;;27.17;;
33150;SDS011;19508;42.578;23.416;2023-01-01T11:09:05;52.63;;;27.05;;
33150;SDS011;19508;42.578;23.416;2023-01-01T11:11:53;46.17;;;24.33;;
33150;SDS011;19508;42.578;23.416;2023-01-01T11:14:27;49.58;;;26.38;;
33150;SDS011;19508;42.578;23.416;2023-01-01T11:16:57;52.47;;;24.67;;
33150;SDS011;19508;42.578;23.416;2023-01-01T11:21:51;58.28;;;29.10;;
33150;SDS011;19508;42.578;23.416;2023-01-01T11:24:18;51.35;;;27.73;;
33150;SDS011;19508;42.578;23.416;2023-01-01T11:26:46;59.92;;;31.63;;
33150;SDS011;19508;42.578;23.416;2023-01-01T11:31:40;75.68;;;36.03;;
33150;SDS011;19508;42.578;23.416;2023-01-01T11:39:47;71.20;;;37.85;;
33150;SDS011;19508;42.578;23.416;2023-01-01T11:42:16;57.67;;;30.50;;
33150;SDS011;19508;42.578;23.416;2023-01-01T11:44:55;52.65;;;26.90;;
33150;SDS011;19508;42.578;23.416;2023-01-01T11:52:44;57.95;;;30.45;;
33150;SDS011;19508;42.578;23.416;2023-01-01T11:57:46;58.78;;;29.17;;
33150;SDS011;19508;42.578;23.416;2023-01-01T12:00:25;54.75;;;30.05;;
33150;SDS011;19508;42.578;23.416;2023-01-01T12:11:54;62.78;;;31.63;;
33150;SDS011;19508;42.578;23.416;2023-01-01T12:17:22;49.45;;;24.73;;
33150;SDS011;19508;42.578;23.416;2023-01-01T12:22:17;48.67;;;27.25;;
33150;SDS011;19508;42.578;23.416;2023-01-01T12:24:43;60.45;;;31.65;;
33150;SDS011;19508;42.578;23.416;2023-01-01T12:27:33;62.60;;;29.75;;
33150;SDS011;19508;42.578;23.416;2023-01-01T12:30:03;73.43;;;31.45;;
33150;SDS011;19508;42.578;23.416;2023-01-01T12:32:43;59.78;;;30.58;;
33150;SDS011;19508;42.578;23.416;2023-01-01T12:49:33;54.00;;;26.85;;
33150;SDS011;19508;42.578;23.416;2023-01-01T13:00:12;48.13;;;23.42;;
33150;SDS011;19508;42.578;23.416;2023-01-01T13:03:04;48.40;;;22.13;;
33150;SDS011;19508;42.578;23.416;2023-01-01T13:05:50;40.83;;;20.13;;
33150;SDS011;19508;42.578;23.416;2023-01-01T13:08:19;45.80;;;19.98;;
33150;SDS011;19508;42.578;23.416;2023-01-01T13:10:45;64.63;;;30.73;;
33150;SDS011;19508;42.578;23.416;2023-01-01T13:13:13;65.03;;;31.65;;
33150;SDS011;19508;42.578;23.416;2023-01-01T13:20:40;51.38;;;23.02;;
33150;SDS011;19508;42.578;23.416;2023-01-01T13:31:33;71.97;;;35.67;;
33150;SDS011;19508;42.578;23.416;2023-01-01T13:42:38;144.68;;;66.38;;
33150;SDS011;19508;42.578;23.416;2023-01-01T13:45:29;99.03;;;51.72;;
33150;SDS011;19508;42.578;23.416;2023-01-01T13:48:25;94.78;;;46.58;;
33150;SDS011;19508;42.578;23.416;2023-01-01T13:50:51;169.88;;;66.72;;
33150;SDS011;19508;42.578;23.416;2023-01-01T14:06:57;120.22;;;59.33;;
33150;SDS011;19508;42.578;23.416;2023-01-01T14:09:31;90.80;;;46.53;;
33150;SDS011;19508;42.578;23.416;2023-01-01T14:12:06;82.40;;;42.15;;
33150;SDS011;19508;42.578;23.416;2023-01-01T14:14:33;108.25;;;52.95;;
33150;SDS011;19508;42.578;23.416;2023-01-01T14:17:01;148.18;;;68.00;;
33150;SDS011;19508;42.578;23.416;2023-01-01T14:19:30;107.72;;;51.10;;
33150;SDS011;19508;42.578;23.416;2023-01-01T14:21:56;76.95;;;38.75;;
33150;SDS011;19508;42.578;23.416;2023-01-01T14:24:22;85.28;;;42.55;;
33150;SDS011;19508;42.578;23.416;2023-01-01T14:26:49;100.47;;;48.25;;
33150;SDS011;19508;42.578;23.416;2023-01-01T14:29:26;69.38;;;35.17;;
33150;SDS011;19508;42.578;23.416;2023-01-01T14:31:56;77.72;;;39.40;;
33150;SDS011;19508;42.578;23.416;2023-01-01T14:34:25;80.32;;;37.10;;
33150;SDS011;19508;42.578;23.416;2023-01-01T14:36:56;92.03;;;44.38;;
33150;SDS011;19508;42.578;23.416;2023-01-01T14:39:23;113.80;;;48.33;;
33150;SDS011;19508;42.578;23.416;2023-01-01T14:41:52;133.32;;;50.97;;
33150;SDS011;19508;42.578;23.416;2023-01-01T14:44:20;81.25;;;44.22;;
33150;SDS011;19508;42.578;23.416;2023-01-01T14:46:50;56.63;;;29.58;;
33150;SDS011;19508;42.578;23.416;2023-01-01T14:51:55;51.25;;;21.17;;
33150;SDS011;19508;42.578;23.416;2023-01-01T14:54:26;48.97;;;19.13;;
33150;SDS011;19508;42.578;23.416;2023-01-01T14:56:57;58.67;;;24.02;;
33150;SDS011;19508;42.578;23.416;2023-01-01T14:59:29;44.97;;;21.80;;
33150;SDS011;19508;42.578;23.416;2023-01-01T15:02:01;66.53;;;30.45;;
33150;SDS011;19508;42.578;23.416;2023-01-01T15:04:33;115.03;;;54.30;;
33150;SDS011;19508;42.578;23.416;2023-01-01T15:06:59;58.85;;;29.80;;
33150;SDS011;19508;42.578;23.416;2023-01-01T15:09:25;56.20;;;23.63;;
33150;SDS011;19508;42.578;23.416;2023-01-01T15:11:55;35.35;;;15.43;;
33150;SDS011;19508;42.578;23.416;2023-01-01T15:17:09;70.72;;;32.47;;
33150;SDS011;19508;42.578;23.416;2023-01-01T15:19:37;39.17;;;18.67;;
33150;SDS011;19508;42.578;23.416;2023-01-01T15:22:13;35.42;;;15.85;;
33150;SDS011;19508;42.578;23.416;2023-01-01T15:24:45;50.15;;;21.40;;
33150;SDS011;19508;42.578;23.416;2023-01-01T15:27:21;130.30;;;54.55;;
33150;SDS011;19508;42.578;23.416;2023-01-01T15:29:51;57.38;;;27.58;;
33150;SDS011;19508;42.578;23.416;2023-01-01T15:32:22;71.97;;;26.10;;
33150;SDS011;19508;42.578;23.416;2023-01-01T15:34:59;98.90;;;41.30;;
33150;SDS011;19508;42.578;23.416;2023-01-01T15:37:35;100.88;;;38.70;;
33150;SDS011;19508;42.578;23.416;2023-01-01T15:50:33;44.35;;;20.30;;
33150;SDS011;19508;42.578;23.416;2023-01-01T15:53:10;80.75;;;36.38;;
33150;SDS011;19508;42.578;23.416;2023-01-01T15:55:43;39.40;;;18.80;;
33150;SDS011;19508;42.578;23.416;2023-01-01T15:58:21;52.22;;;22.50;;
33150;SDS011;19508;42.578;23.416;2023-01-01T16:00:56;34.70;;;15.05;;
33150;SDS011;19508;42.578;23.416;2023-01-01T16:03:26;40.58;;;18.08;;
33150;SDS011;19508;42.578;23.416;2023-01-01T16:05:54;46.88;;;23.13;;
33150;SDS011;19508;42.578;23.416;2023-01-01T16:08:20;44.72;;;20.02;;
33150;SDS011;19508;42.578;23.416;2023-01-01T16:10:49;54.45;;;25.60;;
33150;SDS011;19508;42.578;23.416;2023-01-01T16:13:15;38.05;;;17.75;;
33150;SDS011;19508;42.578;23.416;2023-01-01T16:15:51;55.85;;;27.92;;
33150;SDS011;19508;42.578;23.416;2023-01-01T16:18:19;33.63;;;14.40;;
33150;SDS011;19508;42.578;23.416;2023-01-01T16:20:50;38.83;;;15.20;;
33150;SDS011;19508;42.578;23.416;2023-01-01T16:23:15;65.60;;;29.95;;
33150;SDS011;19508;42.578;23.416;2023-01-01T16:25:42;38.83;;;20.08;;
33150;SDS011;19508;42.578;23.416;2023-01-01T16:28:07;38.45;;;17.15;;
33150;SDS011;19508;42.578;23.416;2023-01-01T16:30:32;28.83;;;14.88;;
33150;SDS011;19508;42.578;23.416;2023-01-01T16:32:58;42.65;;;20.45;;
33150;SDS011;19508;42.578;23.416;2023-01-01T16:35:27;44.60;;;21.17;;
33150;SDS011;19508;42.578;23.416;2023-01-01T16:37:52;68.72;;;34.80;;
33150;SDS011;19508;42.578;23.416;2023-01-01T16:40:17;41.33;;;20.83;;
33150;SDS011;19508;42.578;23.416;2023-01-01T16:42:43;69.05;;;33.00;;
33150;SDS011;19508;42.578;23.416;2023-01-01T16:45:17;113.00;;;39.03;;
33150;SDS011;19508;42.578;23.416;2023-01-01T16:47:43;51.85;;;19.27;;
33150;SDS011;19508;42.578;23.416;2023-01-01T16:50:10;82.15;;;39.55;;
33150;SDS011;19508;42.578;23.416;2023-01-01T16:52:35;81.63;;;40.17;;
33150;SDS011;19508;42.578;23.416;2023-01-01T16:55:01;41.45;;;15.07;;
33150;SDS011;19508;42.578;23.416;2023-01-01T16:57:26;37.03;;;17.45;;
33150;SDS011;19508;42.578;23.416;2023-01-01T16:59:52;50.58;;;24.15;;
33150;SDS011;19508;42.578;23.416;2023-01-01T17:02:17;54.60;;;23.33;;
33150;SDS011;19508;42.578;23.416;2023-01-01T17:04:43;36.05;;;12.10;;